Time;durP1;ratioP1;P1;durP2;ratioP2;P2;SDS_P1;SDS_P2;PMS_P1;PMS_P2;Temp;Humidity;BMP_temperature;BMP_pressure;BME280_temperature;BME280_humidity;BME280_pressure;Samples;Min_cycle;Max_cycle;Signal;HPM_P1;HPM_P2
2024/02/14 04:48:01;;;;;;;2.08;1.08;;;;;;;7.74;98.76;100651.56;6157493;22;1132320;-91
2024/02/14 04:50:28;;;;;;;1.02;0.55;;;;;;;7.72;98.53;100653.81;6182844;23;20020;-88
2024/02/14 04:52:53;;;;;;;1.13;1.02;;;;;;;7.74;98.94;100640.84;6149148;23;20063;-88
2024/02/14 04:55:19;;;;;;;3.22;1.73;;;;;;;7.70;99.70;100649.91;6172161;23;20026;-89
2024/02/14 04:57:44;;;;;;;1.02;0.93;;;;;;;7.74;99.84;100640.06;6195773;23;20023;-89
2024/02/14 05:00:11;;;;;;;5.65;1.30;;;;;;;7.78;100.00;100635.63;6159498;23;20007;-90
2024/02/14 05:02:37;;;;;;;3.30;1.38;;;;;;;7.98;98.94;100629.31;6137452;23;20008;-88
2024/02/14 05:05:03;;;;;;;2.28;1.00;;;;;;;7.93;98.54;100632.25;6184659;23;20021;-89
2024/02/14 05:07:28;;;;;;;2.80;1.48;;;;;;;7.78;98.92;100631.00;6186522;23;20108;-88
2024/02/14 05:09:56;;;;;;;3.53;1.30;;;;;;;7.76;100.00;100633.25;6219285;23;20009;-88
2024/02/14 05:12:22;;;;;;;1.25;1.10;;;;;;;7.88;99.89;100627.09;6188077;23;20023;-88
2024/02/14 05:15:09;;;;;;;2.42;1.35;;;;;;;7.99;98.55;100631.66;6187646;23;20012;-89
2024/02/14 05:17:35;;;;;;;1.67;1.35;;;;;;;7.89;98.60;100623.31;6213527;23;20016;-88
2024/02/14 05:20:08;;;;;;;6.40;1.60;;;;;;;7.98;99.20;100624.75;6163237;23;20004;-89
2024/02/14 05:22:43;;;;;;;1.15;1.00;;;;;;;7.93;98.94;100610.78;6201160;23;20036;-88
2024/02/14 05:25:11;;;;;;;2.05;1.58;;;;;;;7.88;99.46;100609.13;6160001;23;20012;-88
2024/02/14 05:27:46;;;;;;;2.47;1.52;;;;;;;7.89;100.00;100602.66;6168044;23;20776;-89
2024/02/14 05:30:13;;;;;;;1.92;1.33;;;;;;;7.99;100.00;100606.75;6186776;23;20610;-88
2024/02/14 05:32:39;;;;;;;3.75;1.95;;;;;;;7.93;99.66;100605.44;6179467;23;20008;-89
2024/02/14 05:35:05;;;;;;;3.05;1.50;;;;;;;7.96;99.50;100610.91;6222258;23;20011;-89
2024/02/14 05:37:31;;;;;;;1.23;1.10;;;;;;;7.86;100.00;100605.19;6186934;23;20016;-88
2024/02/14 05:39:57;;;;;;;2.38;1.33;;;;;;;7.90;100.00;100595.38;6161711;23;20098;-88
2024/02/14 05:42:22;;;;;;;2.15;1.77;;;;;;;7.90;100.00;100598.84;6189716;23;20016;-89
2024/02/14 05:44:48;;;;;;;5.85;1.35;;;;;;;7.87;100.00;100596.84;6154499;23;20020;-88
2024/02/14 05:47:14;;;;;;;2.92;1.77;;;;;;;7.97;100.00;100601.75;6195636;23;20249;-90
2024/02/14 05:49:42;;;;;;;4.88;2.03;;;;;;;7.94;100.00;100602.41;6191526;23;20031;-88
2024/02/14 05:52:10;;;;;;;2.35;1.60;;;;;;;8.04;100.00;100595.78;6216874;23;20012;-89
2024/02/14 05:54:36;;;;;;;4.22;1.63;;;;;;;8.05;100.00;100597.38;6217003;23;20012;-88
2024/02/14 05:57:02;;;;;;;2.78;1.85;;;;;;;7.98;100.00;100594.47;6221825;23;20036;-89
2024/02/14 05:59:28;;;;;;;2.53;1.50;;;;;;;8.09;100.00;100593.66;6212316;23;20163;-89
2024/02/14 06:01:56;;;;;;;2.30;1.20;;;;;;;8.15;100.00;100596.88;6214735;23;20016;-90
2024/02/14 06:04:24;;;;;;;1.67;1.50;;;;;;;8.12;100.00;100600.25;6198232;23;20098;-90
2024/02/14 06:07:36;;;;;;;2.22;1.48;;;;;;;8.10;100.00;100589.88;6215232;23;20012;-90
2024/02/14 06:10:45;;;;;;;3.50;1.88;;;;;;;8.13;100.00;100578.44;6206534;23;20020;-91
2024/02/14 06:13:14;;;;;;;3.75;1.67;;;;;;;8.03;100.00;100583.53;6218072;23;20019;-90
2024/02/14 06:16:28;;;;;;;3.30;1.67;;;;;;;8.13;100.00;100588.38;6214181;23;20031;-92
2024/02/14 06:22:57;;;;;;;2.53;1.40;;;;;;;8.08;100.00;100591.31;6223552;23;20030;-91
2024/02/14 06:25:36;;;;;;;2.38;1.60;;;;;;;7.98;100.00;100584.53;6176243;23;20012;-89
2024/02/14 06:28:26;;;;;;;3.53;1.88;;;;;;;8.12;100.00;100586.84;6247048;23;20032;-89
2024/02/14 06:31:14;;;;;;;3.35;1.67;;;;;;;8.25;100.00;100585.72;6242885;23;20020;-89
2024/02/14 06:33:58;;;;;;;2.55;1.58;;;;;;;8.32;100.00;100585.13;6217986;23;20397;-88
2024/02/14 06:36:27;;;;;;;1.13;1.08;;;;;;;8.19;100.00;100592.41;6215775;23;20019;-89
2024/02/14 06:38:52;;;;;;;3.28;1.92;;;;;;;8.34;100.00;100585.56;6201104;23;20019;-89
2024/02/14 06:41:20;;;;;;;4.68;1.65;;;;;;;8.17;100.00;100589.28;6218815;23;20000;-89
2024/02/14 06:43:54;;;;;;;1.63;1.52;;;;;;;8.16;100.00;100598.44;6172637;23;20023;-89
2024/02/14 06:46:22;;;;;;;2.97;1.70;;;;;;;8.35;100.00;100597.84;6225042;23;20020;-89
2024/02/14 06:48:47;;;;;;;1.90;1.50;;;;;;;8.39;100.00;100582.63;6214553;23;20060;-89
2024/02/14 06:51:13;;;;;;;2.55;1.40;;;;;;;8.37;100.00;100595.63;6216940;23;20015;-90
2024/02/14 06:53:45;;;;;;;1.23;1.15;;;;;;;8.38;100.00;100594.50;6237162;23;20648;-90
2024/02/14 06:56:20;;;;;;;6.00;1.65;;;;;;;8.38;100.00;100592.59;6214293;23;20012;-88
2024/02/14 06:58:46;;;;;;;2.70;1.65;;;;;;;8.21;100.00;100590.16;6211408;23;20061;-90
2024/02/14 07:01:33;;;;;;;2.03;1.40;;;;;;;8.17;100.00;100590.06;6214036;23;20087;-89
2024/02/14 07:04:45;;;;;;;1.45;1.27;;;;;;;8.22;100.00;100589.06;6242504;23;20485;-89
2024/02/14 07:07:16;;;;;;;3.03;1.42;;;;;;;8.35;100.00;100584.44;6230652;23;20016;-89
2024/02/14 07:10:17;;;;;;;4.25;1.77;;;;;;;8.36;100.00;100594.06;6234146;23;20012;-92
2024/02/14 07:12:46;;;;;;;2.83;2.10;;;;;;;8.47;100.00;100590.56;6219775;23;20012;-89
2024/02/14 07:15:19;;;;;;;4.00;1.85;;;;;;;8.39;100.00;100583.44;6210849;23;20019;-89
2024/02/14 07:17:48;;;;;;;3.50;1.35;;;;;;;8.43;100.00;100589.69;6247551;23;20036;-91
2024/02/14 07:20:16;;;;;;;3.03;1.90;;;;;;;8.35;100.00;100587.13;6230539;23;20008;-91
2024/02/14 07:22:47;;;;;;;5.20;1.92;;;;;;;8.33;100.00;100590.16;6206705;23;20012;-89
2024/02/14 07:25:16;;;;;;;3.60;1.92;;;;;;;8.28;100.00;100586.94;6221480;23;20008;-89
2024/02/14 07:27:45;;;;;;;5.30;2.53;;;;;;;8.28;100.00;100586.94;6191527;23;20050;-88
2024/02/14 07:30:14;;;;;;;2.42;1.48;;;;;;;8.27;100.00;100588.03;6187384;23;20016;-90
2024/02/14 07:32:46;;;;;;;4.43;1.80;;;;;;;8.42;100.00;100590.78;6185786;23;20019;-89
2024/02/14 07:35:13;;;;;;;2.38;1.48;;;;;;;8.53;100.00;100591.09;6159165;23;20031;-89
2024/02/14 07:37:41;;;;;;;5.03;2.10;;;;;;;8.47;100.00;100587.09;6156802;23;19996;-90
2024/02/14 07:40:18;;;;;;;2.17;1.77;;;;;;;8.58;100.00;100593.50;6184990;23;20004;-89
2024/02/14 07:42:43;;;;;;;3.35;1.85;;;;;;;8.50;100.00;100597.13;6213592;23;20018;-88
2024/02/14 07:45:18;;;;;;;4.47;1.73;;;;;;;8.52;100.00;100584.16;6245565;23;20079;-88
2024/02/14 07:47:49;;;;;;;8.63;2.05;;;;;;;8.58;100.00;100585.47;6214456;23;20147;-89
2024/02/14 07:50:17;;;;;;;1.48;1.25;;;;;;;8.55;100.00;100583.47;6189014;23;20004;-89
2024/02/14 07:52:48;;;;;;;3.40;1.92;;;;;;;8.67;100.00;100592.25;6217083;23;20004;-88
2024/02/14 07:55:14;;;;;;;5.00;1.83;;;;;;;8.63;100.00;100585.22;6184044;23;20019;-89
2024/02/14 07:57:42;;;;;;;2.85;1.70;;;;;;;8.51;100.00;100583.38;6226942;23;20343;-88
2024/02/14 08:00:34;;;;;;;2.05;1.63;;;;;;;8.68;100.00;100579.59;6189983;23;20004;-89
2024/02/14 08:04:23;;;;;;;4.93;2.05;;;;;;;8.65;100.00;100583.75;6218249;23;20012;-88
2024/02/14 08:15:44;;;;;;;2.03;1.45;;;;;;;8.77;100.00;100570.25;5937765;24;20027;-91
2024/02/14 08:18:18;;;;;;;3.45;1.52;;;;;;;8.86;100.00;100578.97;5984445;23;20022;-88
2024/02/14 08:20:47;;;;;;;2.50;1.38;;;;;;;8.82;100.00;100577.31;6014033;23;20010;-88
2024/02/14 08:23:16;;;;;;;2.85;1.58;;;;;;;8.81;100.00;100581.88;6015723;23;20202;-88
2024/02/14 08:25:49;;;;;;;2.25;1.58;;;;;;;8.84;100.00;100578.53;6134769;23;20016;-89
2024/02/14 08:31:17;;;;;;;5.63;2.25;;;;;;;9.07;100.00;100584.09;6219171;23;20102;-88
2024/02/14 08:33:49;;;;;;;3.58;1.98;;;;;;;9.03;100.00;100586.69;6191649;23;20008;-88
2024/02/14 08:36:22;;;;;;;3.00;1.35;;;;;;;8.99;100.00;100576.97;6193474;23;20323;-88
2024/02/14 08:38:53;;;;;;;3.80;2.28;;;;;;;9.14;100.00;100581.56;6220677;23;20012;-88
2024/02/14 08:45:31;;;;;;;2.95;1.75;;;;;;;9.07;100.00;100584.88;6185214;23;20480;-89
2024/02/14 08:47:59;;;;;;;;;;;;;;;9.17;100.00;100583.56;6218711;23;20045;-89
2024/02/14 08:50:35;;;;;;;3.20;1.88;;;;;;;9.16;100.00;100575.84;6215323;23;19916;-88
2024/02/14 09:42:47;;;;;;;1.70;1.38;;;;;;;10.01;100.00;100590.09;6205115;23;20355;-90
2024/02/14 09:45:16;;;;;;;0.90;0.90;;;;;;;10.04;100.00;100584.78;6186743;23;20364;-90
2024/02/14 09:47:52;;;;;;;1.77;1.40;;;;;;;10.01;100.00;100590.88;6187257;23;20058;-90
2024/02/14 09:50:20;;;;;;;1.55;1.38;;;;;;;10.02;100.00;100592.47;6162484;23;20004;-90
2024/02/14 09:52:48;;;;;;;1.63;1.30;;;;;;;10.01;100.00;100587.41;6214181;23;20475;-92
2024/02/14 09:55:20;;;;;;;1.15;0.93;;;;;;;10.16;100.00;100591.22;6212351;23;20415;-90
2024/02/14 09:57:47;;;;;;;1.75;1.33;;;;;;;10.23;100.00;100597.53;6187986;23;20017;-91
2024/02/14 10:00:16;;;;;;;2.17;1.42;;;;;;;10.32;100.00;100590.00;6215047;23;20008;-90
2024/02/14 10:02:42;;;;;;;1.85;1.27;;;;;;;10.34;100.00;100593.13;6215610;23;20009;-90
2024/02/14 10:05:17;;;;;;;1.05;1.00;;;;;;;10.46;100.00;100600.28;6212771;23;20004;-90
2024/02/14 10:08:01;;;;;;;2.10;1.50;;;;;;;10.43;100.00;100596.38;6213470;23;20080;-90
2024/02/14 10:10:35;;;;;;;1.27;0.90;;;;;;;10.31;100.00;100598.44;6217433;23;20017;-90
2024/02/14 10:13:32;;;;;;;1.37;1.27;;;;;;;10.29;100.00;100592.66;6191065;23;20047;-91
2024/02/14 10:16:45;;;;;;;1.25;1.08;;;;;;;10.52;100.00;100602.34;6206368;23;20261;-90
2024/02/14 10:19:18;;;;;;;1.38;0.90;;;;;;;10.57;100.00;100602.06;6191365;23;20343;-90
2024/02/14 10:22:25;;;;;;;2.00;1.25;;;;;;;10.64;100.00;100607.59;6217910;23;20012;-90
2024/02/14 10:27:57;;;;;;;2.15;0.85;;;;;;;10.62;100.00;100604.47;6203084;23;20012;-90
2024/02/14 10:30:28;;;;;;;1.02;0.75;;;;;;;10.64;100.00;100610.28;6166565;23;19997;-90
2024/02/14 10:32:57;;;;;;;1.48;1.00;;;;;;;10.82;100.00;100614.06;6191142;23;20020;-91
2024/02/14 10:35:26;;;;;;;1.55;1.02;;;;;;;10.80;100.00;100616.34;6166294;23;20008;-90
2024/02/14 17:18:16;;;;;;;4.15;1.83;;;;;;;12.98;100.00;100729.56;6229124;22;20038;-88
2024/02/14 17:20:57;;;;;;;3.08;2.08;;;;;;;13.00;100.00;100724.59;6244987;23;20702;-88
2024/02/14 17:23:22;;;;;;;4.07;2.25;;;;;;;13.10;100.00;100736.69;6244368;23;20005;-88
2024/02/14 17:25:49;;;;;;;5.03;2.38;;;;;;;13.03;100.00;100737.38;6185384;23;20114;-87
2024/02/14 17:28:17;;;;;;;5.28;3.10;;;;;;;13.10;100.00;100742.09;6235262;23;20010;-87
2024/02/14 17:30:45;;;;;;;6.88;2.80;;;;;;;13.12;100.00;100742.50;6212107;23;20083;-87
2024/02/14 17:37:24;;;;;;;4.00;2.42;;;;;;;12.99;100.00;100743.88;6168433;23;20062;-87
2024/02/14 17:40:02;;;;;;;;;;;;;;;;;;;;;
2024/02/14 17:42:51;;;;;;;3.95;2.60;;;;;;;13.05;100.00;100740.50;6196850;23;20007;-87
2024/02/14 17:45:31;;;;;;;4.18;2.40;;;;;;;13.15;100.00;100747.16;6186287;23;20460;-89
2024/02/14 17:49:09;;;;;;;;;;;;;;;;;;;;;
2024/02/14 17:52:38;;;;;;;4.05;2.05;;;;;;;13.00;100.00;100754.31;6199600;23;20038;-88
2024/02/14 17:55:27;;;;;;;;;;;;;;;;;;;;;
2024/02/14 17:58:03;;;;;;;5.25;2.78;;;;;;;12.96;100.00;100755.41;6214463;23;20022;-88
2024/02/14 18:01:09;;;;;;;6.65;2.50;;;;;;;13.03;100.00;100750.91;6201000;23;20088;-88
2024/02/14 18:03:55;;;;;;;6.10;2.58;;;;;;;13.22;100.00;100758.09;6185699;23;20027;-88
2024/02/14 18:06:48;;;;;;;5.10;2.63;;;;;;;13.22;100.00;100749.97;6198398;23;20019;-87
2024/02/14 18:09:43;;;;;;;;;;;;;;;;;;;;;
2024/02/14 18:12:54;;;;;;;5.03;2.47;;;;;;;13.02;100.00;100749.31;6235432;23;20024;-88
2024/02/14 18:16:03;;;;;;;4.82;2.80;;;;;;;13.05;100.00;100753.22;6229003;23;20008;-89
2024/02/14 18:22:33;;;;;;;7.53;2.70;;;;;;;13.02;100.00;100762.06;6218249;23;20015;-91
2024/02/14 18:25:35;;;;;;;18.83;5.28;;;;;;;13.08;100.00;100758.69;6189796;23;20012;-88
2024/02/14 18:28:22;;;;;;;5.85;2.58;;;;;;;13.03;100.00;100760.88;6200606;23;20087;-88
2024/02/14 18:31:13;;;;;;;4.45;2.50;;;;;;;12.92;100.00;100762.69;6193231;23;20004;-88
2024/02/14 18:37:52;;;;;;;6.65;3.30;;;;;;;13.14;100.00;100761.84;6254621;23;20019;-88
2024/02/14 18:40:41;;;;;;;7.25;3.15;;;;;;;13.08;100.00;100768.72;6242304;23;20100;-90
2024/02/14 18:43:47;;;;;;;5.07;2.72;;;;;;;13.10;100.00;100758.31;6187996;23;20013;-91
2024/02/14 18:54:27;;;;;;;5.35;2.92;;;;;;;12.94;100.00;100749.59;6217133;23;20668;-86
2024/02/14 18:57:45;;;;;;;7.45;2.83;;;;;;;13.11;100.00;100757.94;6243719;23;20026;-88
2024/02/14 19:00:16;;;;;;;6.97;3.45;;;;;;;13.16;100.00;100756.84;6214416;23;20020;-88
2024/02/14 19:03:51;;;;;;;5.05;2.40;;;;;;;13.07;100.00;100748.22;6238297;23;20087;-88
2024/02/14 19:07:27;;;;;;;;;;;;;;;;;;;;;
2024/02/14 19:11:08;;;;;;;7.00;3.40;;;;;;;12.91;100.00;100743.00;6104508;23;20042;-90
2024/02/14 19:14:10;;;;;;;5.90;3.33;;;;;;;12.90;100.00;100746.06;6088706;23;20023;-90
2024/02/14 19:16:38;;;;;;;;;;;;;;;12.99;100.00;100750.03;6107927;23;20964;-92
2024/02/14 19:19:04;;;;;;;6.90;3.10;;;;;;;13.00;100.00;100757.03;6212666;23;19934;-88
2024/02/14 19:21:35;;;;;;;8.55;3.75;;;;;;;13.01;100.00;100763.19;6237630;23;20039;-90
2024/02/14 19:24:06;;;;;;;8.82;3.83;;;;;;;13.07;100.00;100759.81;6212083;23;20066;-88
2024/02/14 19:26:41;;;;;;;9.50;4.32;;;;;;;13.00;100.00;100764.34;6214087;23;20007;-90
2024/02/14 19:29:12;;;;;;;8.40;3.97;;;;;;;13.02;100.00;100767.47;6216107;23;20099;-89
2024/02/14 19:31:41;;;;;;;;;;;;;;;13.05;100.00;100764.03;6244675;23;20073;-89
2024/02/14 19:34:07;;;;;;;11.20;3.63;;;;;;;13.17;100.00;100767.28;6239591;23;19911;-89
2024/02/14 19:36:35;;;;;;;9.63;4.00;;;;;;;13.28;100.00;100762.78;6212001;23;20014;-88
2024/02/14 19:39:13;;;;;;;10.60;3.97;;;;;;;13.14;100.00;100770.72;6236402;23;20461;-87
2024/02/14 19:42:14;;;;;;;8.20;3.65;;;;;;;13.13;100.00;100763.75;6202219;23;20447;-86
2024/02/14 19:44:44;;;;;;;9.20;3.85;;;;;;;13.14;100.00;100768.00;6210818;23;20008;-89
2024/02/14 19:47:55;;;;;;;9.05;4.00;;;;;;;13.14;100.00;100765.31;6209265;23;20011;-89
2024/02/14 19:50:30;;;;;;;8.13;3.67;;;;;;;13.04;100.00;100767.91;6096257;23;20011;-87
2024/02/14 19:53:15;;;;;;;9.10;3.83;;;;;;;13.16;100.00;100762.25;6237494;23;20016;-88
2024/02/14 19:57:03;;;;;;;10.38;4.53;;;;;;;13.07;100.00;100767.16;6237780;23;20111;-89
2024/02/14 19:59:51;;;;;;;9.95;4.00;;;;;;;13.11;100.00;100768.75;6204531;23;20027;-92
2024/02/14 20:03:37;;;;;;;10.75;4.32;;;;;;;13.04;100.00;100773.31;6205955;23;20019;-89
2024/02/14 20:06:44;;;;;;;11.45;5.30;;;;;;;13.16;100.00;100765.72;6183255;23;20016;-88
2024/02/14 20:10:14;;;;;;;;;;;;;;;;;;;;;
2024/02/14 20:12:59;;;;;;;13.88;4.78;;;;;;;13.21;100.00;100768.13;6218629;23;20019;-86
2024/02/14 20:15:27;;;;;;;12.27;4.32;;;;;;;13.25;100.00;100760.81;6226704;23;20354;-89
2024/02/14 20:18:03;;;;;;;8.75;3.85;;;;;;;13.22;100.00;100771.59;6207831;23;20042;-88
2024/02/14 20:21:15;;;;;;;;;;;;;;;;;;;;;
2024/02/14 20:23:44;;;;;;;9.60;4.38;;;;;;;13.29;100.00;100772.47;6221269;23;20055;-89
2024/02/14 20:26:16;;;;;;;6.93;3.22;;;;;;;13.23;100.00;100781.25;6213316;23;20007;-87
2024/02/14 20:28:51;;;;;;;14.52;4.57;;;;;;;13.18;100.00;100784.31;6207371;23;20027;-88
2024/02/14 20:31:38;;;;;;;10.27;4.53;;;;;;;13.21;100.00;100787.03;6210044;23;20498;-88
2024/02/14 20:34:07;;;;;;;8.40;3.38;;;;;;;13.16;100.00;100784.66;6186910;23;20059;-88
2024/02/14 20:37:08;;;;;;;13.43;4.40;;;;;;;13.18;100.00;100778.91;6175346;23;20073;-88
2024/02/14 20:39:55;;;;;;;8.73;3.92;;;;;;;13.31;100.00;100780.97;6122100;23;20016;-89
2024/02/14 20:42:35;;;;;;;6.63;3.35;;;;;;;13.34;100.00;100784.84;6184698;23;20012;-88
2024/02/14 20:45:17;;;;;;;13.88;4.03;;;;;;;13.26;100.00;100777.81;6169072;23;20016;-88
2024/02/14 20:47:55;;;;;;;;;;;;;;;13.25;100.00;100777.03;6189365;23;20107;-88
2024/02/14 20:50:33;;;;;;;11.55;3.50;;;;;;;13.34;100.00;100774.03;6197000;23;19914;-88
2024/02/14 20:53:04;;;;;;;11.10;3.80;;;;;;;13.28;100.00;100778.22;6162673;23;20122;-88
2024/02/14 20:55:39;;;;;;;9.52;3.95;;;;;;;13.26;100.00;100775.09;6187646;23;20019;-88
2024/02/14 20:58:08;;;;;;;11.18;3.88;;;;;;;13.28;100.00;100767.41;6215852;23;20012;-88
2024/02/14 21:00:36;;;;;;;8.25;3.50;;;;;;;13.24;100.00;100778.19;6188604;23;20000;-88
2024/02/14 21:03:12;;;;;;;16.88;4.63;;;;;;;13.27;100.00;100782.88;6215284;23;20295;-88
2024/02/14 21:05:44;;;;;;;10.18;3.72;;;;;;;13.34;100.00;100784.84;6184088;23;20544;-88
2024/02/14 21:08:42;;;;;;;11.02;4.88;;;;;;;13.23;100.00;100783.97;6188956;23;20023;-89
2024/02/14 21:15:28;;;;;;;7.72;3.15;;;;;;;13.39;100.00;100787.25;6138067;23;20025;-87
2024/02/14 21:18:25;;;;;;;8.98;3.90;;;;;;;13.31;100.00;100789.09;6190249;23;20024;-88
2024/02/14 21:20:53;;;;;;;11.50;4.75;;;;;;;13.37;100.00;100793.03;6184059;23;20011;-88
2024/02/14 21:26:37;;;;;;;7.95;3.65;;;;;;;13.32;100.00;100795.25;6178962;23;20020;-88
2024/02/14 21:29:08;;;;;;;9.13;3.53;;;;;;;13.33;100.00;100786.00;6180161;23;20012;-88
2024/02/14 21:31:34;;;;;;;7.55;3.33;;;;;;;13.36;100.00;100796.88;6182149;23;20012;-88
2024/02/14 21:34:10;;;;;;;6.13;3.58;;;;;;;13.39;100.00;100798.06;6154764;23;20014;-87
2024/02/14 21:36:45;;;;;;;6.82;3.30;;;;;;;13.41;100.00;100795.78;6207179;23;20012;-88
2024/02/14 21:39:14;;;;;;;8.93;3.05;;;;;;;13.38;100.00;100800.00;6179335;23;20016;-88
2024/02/14 21:41:45;;;;;;;9.00;3.92;;;;;;;13.39;100.00;100798.06;6181194;23;20000;-88
2024/02/14 21:44:20;;;;;;;7.10;3.60;;;;;;;13.38;100.00;100796.50;6179871;23;20016;-88
2024/02/14 21:46:49;;;;;;;10.13;3.50;;;;;;;13.36;100.00;100798.78;6181028;23;20405;-88
2024/02/14 21:49:19;;;;;;;10.38;4.28;;;;;;;13.46;100.00;100798.91;6155320;23;20012;-88
2024/02/14 21:51:50;;;;;;;13.15;4.55;;;;;;;13.53;100.00;100795.50;6179884;23;20008;-88
2024/02/14 21:54:24;;;;;;;9.70;3.45;;;;;;;13.42;100.00;100792.69;6180731;23;20031;-88
2024/02/14 21:56:55;;;;;;;6.65;2.63;;;;;;;13.44;100.00;100795.03;6180820;23;20008;-88
2024/02/14 21:59:21;;;;;;;10.27;4.00;;;;;;;13.57;100.00;100788.97;6181763;23;20965;-88
2024/02/14 22:01:51;;;;;;;7.82;4.18;;;;;;;13.50;100.00;100782.72;6185009;23;20108;-88
2024/02/14 22:04:36;;;;;;;10.40;4.53;;;;;;;13.45;100.00;100781.13;6207763;23;20015;-88
2024/02/14 22:07:05;;;;;;;7.88;3.42;;;;;;;13.38;100.00;100788.38;6237218;23;20016;-86
2024/02/14 22:09:38;;;;;;;8.10;3.78;;;;;;;13.42;100.00;100776.47;6211235;23;20049;-88
2024/02/14 22:12:07;;;;;;;6.72;3.15;;;;;;;13.46;100.00;100779.97;6208861;23;20035;-88
2024/02/14 22:14:35;;;;;;;;;;;;;;;13.41;100.00;100782.25;6177154;23;20755;-87
2024/02/14 22:17:13;;;;;;;6.75;3.22;;;;;;;13.49;100.00;100773.81;6193738;23;19930;-88
2024/02/14 22:19:39;;;;;;;9.38;3.85;;;;;;;13.45;100.00;100780.34;6211459;23;20016;-88
2024/02/14 22:22:12;;;;;;;9.45;4.32;;;;;;;13.42;100.00;100781.88;6208189;23;20012;-88
2024/02/14 22:24:40;;;;;;;9.13;3.50;;;;;;;13.43;100.00;100772.59;6181858;23;20016;-88
2024/02/14 22:27:13;;;;;;;8.52;3.50;;;;;;;13.37;100.00;100779.50;6210914;23;20054;-88
2024/02/14 22:29:51;;;;;;;7.07;3.72;;;;;;;13.49;100.00;100781.19;6188902;23;20009;-88
2024/02/14 22:32:31;;;;;;;10.68;3.40;;;;;;;13.63;100.00;100783.25;6239763;23;20043;-87
2024/02/14 22:35:35;;;;;;;7.50;3.13;;;;;;;13.54;100.00;100778.91;6242070;23;20243;-87
2024/02/14 22:38:18;;;;;;;11.75;4.28;;;;;;;13.52;100.00;100777.72;6236596;23;20016;-87
2024/02/14 22:41:00;;;;;;;7.30;3.85;;;;;;;13.45;100.00;100773.00;6183350;23;20012;-87
2024/02/14 22:46:56;;;;;;;;;;;;;;;;;;;;;
2024/02/14 22:49:25;;;;;;;10.02;3.88;;;;;;;13.53;100.00;100769.22;6213824;23;20009;-88
2024/02/14 22:51:53;;;;;;;8.05;4.15;;;;;;;13.52;100.00;100775.78;6187492;23;20042;-87
2024/02/14 22:54:19;;;;;;;11.43;4.18;;;;;;;13.55;100.00;100769.63;6213172;23;20004;-87
2024/02/14 22:56:51;;;;;;;14.57;3.30;;;;;;;13.47;100.00;100767.25;6213521;23;20331;-87
2024/02/14 22:59:29;;;;;;;7.65;3.25;;;;;;;13.50;100.00;100758.38;6223734;23;20443;-86
2024/02/14 23:01:56;;;;;;;10.50;3.75;;;;;;;13.44;100.00;100762.56;6210347;23;20012;-88
2024/02/14 23:04:33;;;;;;;11.63;3.50;;;;;;;13.47;100.00;100759.13;6187776;23;20015;-87
